DuBois Regional Airport Dubois US
ICAO: KDUJ
IATA: DUJ
Category: Medium
Scheduled Services: Yes

Elevation: 1817 ft
TransAlt. 18000 ft.

Airport Communications:
ASOS:119.025
CLEVELAND CNTR:126.72
CTAF:123
ALTOONA RDO:122.2
UNICOM:123

KDUJ Zoom In..

If you have problems with the map follow the link
https://www.worldairports.se/pages/airport.php?
ICAO=KDUJ

Runways:

(A) RW 07 length 5503 ft width 100 ft
---- / hdg 72

(B) RW 25 length 5503 ft width 100 ft
ILS 109.90 / hdg 252

Location; KDUJ
Day. 18 / Time. 06.53 Zulu
* Altimeter: 30.27
* Temperature: 03° c. 37.4°f.
* Wind from: 270° Speed 11 kn.
Dewpoint: -03° c.
Visibility: 10 Statute Miles.
Clouds: Scattered 3900 ft.
Clouds: Overcast 5000 ft.

KDUJ 180653Z AUTO 27011KT 10SM SCT039 OVC050 03/M03 A3027 RMK AO2 SLP259 T00281033


Wind From 270°
Speed 11 kn.

 
 
jpsmedia.com for Web Design worldairports.se 2018   terms of use